Time;durP1;ratioP1;P1;durP2;ratioP2;P2;SDS_P1;SDS_P2;PMS_P1;PMS_P2;Temp;Humidity;BMP_temperature;BMP_pressure;BME280_temperature;BME280_humidity;BME280_pressure;Samples;Min_cycle;Max_cycle;Signal;HPM_P1;HPM_P2
2023/07/19 00:01:36;;;;;;;6.50;5.90;;;19.10;99.90;;;;;;5029456;28;20739;-74
2023/07/19 00:04:02;;;;;;;7.23;6.47;;;19.10;99.90;;;;;;5030858;28;20263;-74
2023/07/19 00:06:28;;;;;;;7.60;6.23;;;19.00;99.90;;;;;;5041796;28;20185;-74
2023/07/19 00:08:53;;;;;;;6.93;5.90;;;18.20;99.90;;;;;;5031482;28;20193;-74
2023/07/19 00:11:19;;;;;;;6.57;5.83;;;19.00;99.90;;;;;;5031656;28;20221;-74
2023/07/19 00:13:44;;;;;;;6.67;6.03;;;19.00;99.90;;;;;;5029619;28;20216;-74
2023/07/19 00:16:10;;;;;;;6.73;5.87;;;18.90;99.90;;;;;;5024902;28;20760;-74
2023/07/19 00:18:35;;;;;;;7.83;6.17;;;18.90;99.90;;;;;;5045888;28;20286;-74
2023/07/19 00:21:01;;;;;;;8.07;6.30;;;18.90;99.90;;;;;;5028769;28;20323;-74
2023/07/19 00:23:26;;;;;;;8.10;6.70;;;18.90;99.90;;;;;;5031942;28;20682;-74
2023/07/19 00:25:52;;;;;;;7.13;6.27;;;18.80;99.90;;;;;;5049427;28;20213;-74
2023/07/19 00:28:18;;;;;;;7.10;6.40;;;18.90;99.90;;;;;;5044285;28;20549;-74
2023/07/19 00:30:43;;;;;;;7.40;6.50;;;19.40;99.90;;;;;;5031458;28;20312;-74
2023/07/19 00:33:09;;;;;;;6.73;6.13;;;18.90;99.90;;;;;;5054259;28;20174;-74
2023/07/19 00:35:40;;;;;;;7.07;6.37;;;19.00;99.90;;;;;;5033008;28;20667;-74
2023/07/19 00:38:06;;;;;;;6.80;5.63;;;19.10;99.90;;;;;;5028986;28;20201;-74
2023/07/19 00:40:33;;;;;;;6.23;5.73;;;19.20;99.90;;;;;;5048915;28;20174;-74
2023/07/19 00:42:58;;;;;;;8.00;5.85;;;19.30;99.90;;;;;;5047092;28;20440;-74
2023/07/19 00:45:27;;;;;;;7.73;6.83;;;19.10;99.90;;;;;;5051078;28;20231;-74
2023/07/19 00:47:55;;;;;;;7.30;6.57;;;18.90;99.90;;;;;;5031614;28;20256;-74
2023/07/19 00:50:21;;;;;;;6.28;5.40;;;19.00;99.90;;;;;;5027902;28;20186;-74
2023/07/19 00:52:48;;;;;;;6.93;6.22;;;19.40;99.90;;;;;;5048959;28;20228;-74
2023/07/19 00:55:14;;;;;;;7.90;5.93;;;19.20;99.90;;;;;;5032261;28;20205;-74
2023/07/19 00:57:39;;;;;;;8.50;7.03;;;19.10;99.90;;;;;;5028434;28;20246;-74
2023/07/19 01:00:06;;;;;;;6.77;6.03;;;19.00;99.90;;;;;;5029046;28;20676;-74
2023/07/19 01:02:32;;;;;;;7.40;6.70;;;18.90;99.90;;;;;;5053529;28;20673;-74
2023/07/19 01:04:58;;;;;;;7.53;6.50;;;18.60;99.90;;;;;;5030116;28;20202;-74
2023/07/19 01:07:24;;;;;;;7.10;6.40;;;18.80;99.90;;;;;;5032656;28;20858;-74
2023/07/19 01:09:50;;;;;;;9.65;6.63;;;18.80;99.90;;;;;;5030218;28;20181;-74
2023/07/19 01:12:16;;;;;;;7.30;6.57;;;19.00;99.90;;;;;;5029720;28;20549;-74
2023/07/19 01:14:42;;;;;;;7.13;5.93;;;18.80;99.90;;;;;;5049880;28;20202;-74
2023/07/19 01:17:07;;;;;;;8.07;6.50;;;18.80;99.90;;;;;;5029652;28;20193;-74
2023/07/19 01:19:33;;;;;;;6.80;6.13;;;18.80;99.90;;;;;;5032261;28;20674;-74
2023/07/19 01:21:59;;;;;;;6.87;6.20;;;18.60;99.90;;;;;;5049675;28;20193;-74
2023/07/19 01:24:24;;;;;;;7.70;6.77;;;18.80;99.90;;;;;;5031403;28;20224;-74
2023/07/19 01:26:50;;;;;;;7.53;6.17;;;19.00;99.90;;;;;;5047876;28;20452;-74
2023/07/19 01:29:15;;;;;;;6.40;5.80;;;18.90;99.90;;;;;;5030031;28;20189;-74
2023/07/19 01:31:41;;;;;;;8.43;6.70;;;18.80;99.90;;;;;;5034767;28;20254;-74
2023/07/19 01:34:07;;;;;;;6.10;5.30;;;18.70;99.90;;;;;;5029497;28;20216;-74
2023/07/19 01:36:33;;;;;;;6.57;6.07;;;18.70;99.90;;;;;;5024435;28;20298;-74
2023/07/19 01:38:59;;;;;;;6.80;6.20;;;18.60;99.90;;;;;;5053360;28;20756;-74
2023/07/19 01:41:24;;;;;;;7.73;5.67;;;18.60;99.90;;;;;;5036225;28;20173;-74
2023/07/19 01:43:50;;;;;;;6.73;6.10;;;18.50;99.90;;;;;;5045120;28;20198;-74
2023/07/19 01:46:15;;;;;;;6.70;6.00;;;18.50;99.90;;;;;;5052986;28;20220;-74
2023/07/19 01:48:41;;;;;;;7.37;6.47;;;19.00;99.90;;;;;;5047487;28;20181;-74
2023/07/19 01:51:07;;;;;;;6.40;5.77;;;18.60;99.90;;;;;;5051230;28;20190;-74
2023/07/19 01:53:32;;;;;;;6.43;5.77;;;18.60;99.90;;;;;;5050034;28;20216;-74
2023/07/19 01:55:58;;;;;;;9.83;6.73;;;18.50;99.90;;;;;;5050936;28;20654;-74
2023/07/19 01:58:23;;;;;;;7.30;6.60;;;18.40;99.90;;;;;;5049045;28;20257;-74
2023/07/19 02:00:49;;;;;;;7.33;6.13;;;18.40;99.90;;;;;;5028655;28;20559;-74
2023/07/19 02:03:14;;;;;;;6.60;5.60;;;18.40;99.90;;;;;;5052214;28;20251;-74
2023/07/19 02:05:40;;;;;;;7.00;6.13;;;18.40;99.90;;;;;;5030692;28;20204;-74
2023/07/19 02:08:06;;;;;;;7.10;6.47;;;18.30;99.90;;;;;;5027608;28;20201;-74
2023/07/19 02:10:32;;;;;;;9.10;6.70;;;18.30;99.90;;;;;;5029448;28;20192;-74
2023/07/19 02:12:57;;;;;;;8.70;6.73;;;18.60;99.90;;;;;;5046947;28;20190;-74
2023/07/19 02:15:23;;;;;;;7.53;6.93;;;18.20;99.90;;;;;;5031932;28;20196;-74
2023/07/19 02:17:49;;;;;;;7.37;6.67;;;18.20;99.90;;;;;;5030755;28;20197;-74
2023/07/19 02:20:19;;;;;;;5.83;5.33;;;18.10;99.90;;;;;;5030258;28;20210;-74
2023/07/19 02:22:45;;;;;;;6.97;6.32;;;18.30;99.90;;;;;;5045010;28;20237;-74
2023/07/19 02:25:11;;;;;;;8.20;6.20;;;18.00;99.90;;;;;;5048766;28;20692;-74
2023/07/19 02:27:37;;;;;;;7.10;6.40;;;18.00;99.90;;;;;;5028058;28;20197;-74
2023/07/19 02:30:03;;;;;;;7.30;6.60;;;18.20;99.90;;;;;;5050949;28;20184;-74
2023/07/19 02:32:28;;;;;;;7.30;6.30;;;17.90;99.90;;;;;;5029111;28;20251;-74
2023/07/19 02:34:54;;;;;;;10.70;7.00;;;18.20;99.90;;;;;;5047882;28;20247;-74
2023/07/19 02:37:20;;;;;;;8.90;6.63;;;18.00;99.90;;;;;;5030749;28;20973;-74
2023/07/19 02:39:45;;;;;;;6.73;6.20;;;17.90;99.90;;;;;;5050470;28;20216;-74
2023/07/19 02:42:11;;;;;;;7.57;6.00;;;17.80;99.90;;;;;;5047011;28;20188;-74
2023/07/19 02:44:36;;;;;;;7.40;6.13;;;17.90;99.90;;;;;;5029325;28;20202;-74
2023/07/19 02:47:02;;;;;;;6.97;6.37;;;17.90;99.90;;;;;;5031653;28;20242;-74
2023/07/19 02:49:28;;;;;;;6.83;6.30;;;17.80;99.90;;;;;;5049694;28;20261;-74
2023/07/19 02:51:53;;;;;;;7.83;6.77;;;18.10;99.90;;;;;;5034058;28;20181;-74
2023/07/19 02:54:19;;;;;;;7.43;6.67;;;17.80;99.90;;;;;;5031348;28;20255;-74
2023/07/19 02:56:44;;;;;;;7.93;6.80;;;17.90;99.90;;;;;;5049854;28;20698;-74
2023/07/19 02:59:10;;;;;;;7.20;6.50;;;17.80;99.90;;;;;;5030278;28;20275;-74
2023/07/19 03:01:36;;;;;;;8.07;6.63;;;17.90;99.90;;;;;;5029982;28;20276;-74
2023/07/19 03:04:02;;;;;;;7.30;6.60;;;17.80;99.90;;;;;;5027827;28;20247;-74
2023/07/19 03:06:28;;;;;;;6.90;6.25;;;17.80;99.90;;;;;;5048891;28;20443;-74
2023/07/19 03:08:54;;;;;;;9.63;6.83;;;17.80;99.90;;;;;;5031574;28;20250;-73
2023/07/19 03:11:19;;;;;;;7.70;7.00;;;17.80;99.90;;;;;;5028499;28;20217;-74
2023/07/19 03:13:45;;;;;;;6.70;6.10;;;17.80;99.90;;;;;;5027494;28;20602;-74
2023/07/19 03:16:10;;;;;;;7.50;6.80;;;17.70;99.90;;;;;;5030078;28;20182;-73
2023/07/19 03:18:36;;;;;;;6.90;6.30;;;17.70;99.90;;;;;;5032511;28;20235;-74
2023/07/19 03:21:02;;;;;;;8.90;6.10;;;17.60;99.90;;;;;;5033019;28;20312;-74
2023/07/19 03:23:32;;;;;;;6.97;6.33;;;17.60;99.90;;;;;;5033183;28;20637;-73
2023/07/19 03:25:58;;;;;;;8.10;6.60;;;17.60;99.90;;;;;;5050267;28;20435;-74
2023/07/19 03:28:25;;;;;;;7.20;6.45;;;17.60;99.90;;;;;;5029171;28;21062;-74
2023/07/19 03:30:54;;;;;;;7.88;6.88;;;17.70;99.90;;;;;;5031712;28;20207;-74
2023/07/19 03:33:23;;;;;;;6.65;6.05;;;17.70;99.90;;;;;;5053670;28;21033;-74
2023/07/19 03:35:49;;;;;;;6.30;5.68;;;17.90;99.90;;;;;;5032712;28;20631;-74
2023/07/19 03:38:15;;;;;;;8.73;6.40;;;17.70;99.90;;;;;;5032248;28;20264;-74
2023/07/19 03:40:41;;;;;;;7.65;6.85;;;18.20;99.90;;;;;;5047744;28;20280;-74
2023/07/19 03:43:07;;;;;;;6.45;5.85;;;18.00;99.90;;;;;;5029670;28;20689;-70
2023/07/19 03:45:32;;;;;;;9.13;6.53;;;17.90;99.90;;;;;;5047708;28;20189;-70
2023/07/19 03:47:58;;;;;;;6.67;6.03;;;18.00;99.90;;;;;;5049733;28;20721;-70
2023/07/19 03:50:25;;;;;;;7.10;6.40;;;18.10;99.90;;;;;;5056944;28;20196;-71
2023/07/19 03:52:50;;;;;;;8.57;6.22;;;18.10;99.90;;;;;;5049550;28;20189;-71
2023/07/19 03:55:16;;;;;;;6.03;5.43;;;18.20;99.90;;;;;;5034840;28;20584;-72
2023/07/19 03:57:42;;;;;;;6.40;5.80;;;18.20;99.90;;;;;;5048607;28;20962;-71
2023/07/19 04:00:09;;;;;;;7.93;6.10;;;18.30;99.90;;;;;;5047008;28;20204;-72
2023/07/19 04:02:34;;;;;;;7.00;6.40;;;18.40;99.90;;;;;;5053362;28;20448;-71
2023/07/19 04:05:00;;;;;;;7.30;6.03;;;18.80;99.90;;;;;;5053797;28;20208;-72
2023/07/19 04:07:26;;;;;;;6.40;5.80;;;18.40;99.90;;;;;;5044986;28;20197;-71
2023/07/19 04:09:52;;;;;;;6.47;5.82;;;18.40;99.90;;;;;;5030083;28;20186;-72
2023/07/19 04:12:18;;;;;;;6.37;5.80;;;18.40;99.90;;;;;;5042129;28;20198;-71
2023/07/19 04:14:43;;;;;;;6.22;5.65;;;18.50;99.90;;;;;;5027723;28;20252;-71
2023/07/19 04:17:10;;;;;;;7.37;5.17;;;18.50;99.90;;;;;;5024221;28;20203;-72
2023/07/19 04:19:36;;;;;;;6.60;6.00;;;18.50;99.90;;;;;;5032440;28;20482;-72
2023/07/19 04:22:02;;;;;;;6.50;5.83;;;18.50;99.90;;;;;;5050505;28;20189;-71
2023/07/19 04:24:28;;;;;;;7.47;6.20;;;18.60;99.90;;;;;;5049023;28;20221;-72
2023/07/19 04:26:54;;;;;;;6.07;5.47;;;18.50;99.90;;;;;;5046085;28;20303;-71
2023/07/19 04:29:21;;;;;;;8.63;5.87;;;18.60;99.90;;;;;;5044904;28;20188;-71
2023/07/19 04:31:47;;;;;;;6.78;5.43;;;18.60;99.90;;;;;;5042552;28;20260;-72
2023/07/19 04:34:12;;;;;;;7.30;5.93;;;18.60;99.90;;;;;;5052732;28;20198;-71
2023/07/19 04:36:39;;;;;;;5.83;5.33;;;18.60;99.90;;;;;;5053741;28;20512;-72
2023/07/19 04:39:05;;;;;;;7.93;5.63;;;18.60;99.90;;;;;;5051512;28;20197;-71
2023/07/19 04:41:31;;;;;;;6.17;5.27;;;18.60;99.90;;;;;;5052625;28;20173;-72
2023/07/19 04:43:56;;;;;;;7.70;5.63;;;18.60;99.90;;;;;;5030166;28;20474;-71
2023/07/19 04:46:22;;;;;;;5.70;5.20;;;18.60;99.90;;;;;;5052541;28;20558;-71
2023/07/19 04:48:48;;;;;;;5.93;5.43;;;18.60;99.90;;;;;;5047522;28;20200;-72
2023/07/19 04:51:13;;;;;;;5.80;5.10;;;18.70;99.90;;;;;;5027502;28;20195;-72
2023/07/19 04:53:39;;;;;;;7.13;5.70;;;18.70;99.90;;;;;;5054286;28;20690;-71
2023/07/19 04:56:04;;;;;;;6.37;5.80;;;18.80;99.90;;;;;;5055260;28;20262;-71
2023/07/19 04:58:30;;;;;;;6.40;5.57;;;18.90;99.90;;;;;;5049091;28;20207;-71
2023/07/19 05:00:56;;;;;;;9.93;5.73;;;19.00;99.90;;;;;;5046777;28;20666;-72
2023/07/19 05:03:22;;;;;;;6.27;5.37;;;19.10;99.90;;;;;;5047193;28;20202;-71
2023/07/19 05:05:47;;;;;;;6.83;5.30;;;19.20;99.90;;;;;;5044384;28;20209;-71
2023/07/19 05:08:13;;;;;;;6.87;5.83;;;19.30;99.90;;;;;;5045819;28;20523;-72
2023/07/19 05:10:40;;;;;;;11.93;7.13;;;19.30;99.90;;;;;;5051193;28;20217;-72
2023/07/19 05:13:05;;;;;;;5.72;5.22;;;19.40;99.90;;;;;;5025960;28;20194;-71
2023/07/19 05:15:32;;;;;;;5.90;5.30;;;19.10;99.90;;;;;;5043252;28;20197;-78
2023/07/19 05:18:00;;;;;;;7.22;5.70;;;19.50;99.90;;;;;;5032141;28;20606;-73
2023/07/19 05:20:26;;;;;;;8.40;5.90;;;19.60;99.90;;;;;;5051558;28;20213;-70
2023/07/19 05:22:51;;;;;;;6.73;5.70;;;19.60;99.90;;;;;;5037893;28;20256;-74
2023/07/19 05:25:17;;;;;;;5.70;5.20;;;19.70;99.90;;;;;;5047527;28;20458;-72
2023/07/19 05:27:43;;;;;;;6.60;5.40;;;19.80;99.90;;;;;;5052915;28;20193;-73
2023/07/19 05:30:09;;;;;;;5.97;5.47;;;19.90;99.90;;;;;;5034055;28;20224;-74
2023/07/19 05:32:34;;;;;;;6.80;5.88;;;20.00;99.90;;;;;;5030088;28;20185;-73
2023/07/19 05:35:00;;;;;;;5.60;5.10;;;20.00;99.90;;;;;;5044875;28;20255;-75
2023/07/19 05:37:27;;;;;;;6.00;4.83;;;20.10;99.90;;;;;;5027754;28;20189;-75
2023/07/19 05:39:53;;;;;;;5.60;4.85;;;20.20;99.90;;;;;;5042003;28;20205;-75
2023/07/19 05:42:19;;;;;;;6.47;5.87;;;20.30;99.90;;;;;;5026895;28;20652;-75
2023/07/19 05:44:44;;;;;;;4.87;4.47;;;20.30;99.90;;;;;;5029420;28;20205;-77
2023/07/19 05:47:10;;;;;;;7.00;5.67;;;20.50;99.90;;;;;;5045552;28;20182;-73
2023/07/19 05:49:36;;;;;;;5.40;4.90;;;20.60;99.90;;;;;;5046708;28;20264;-72
2023/07/19 05:52:01;;;;;;;8.77;5.70;;;20.70;99.90;;;;;;5046813;28;20272;-72
2023/07/19 05:54:27;;;;;;;7.57;5.47;;;20.80;99.90;;;;;;5029153;28;20205;-73
2023/07/19 05:56:52;;;;;;;30.37;10.07;;;20.90;99.90;;;;;;5046509;28;20548;-78
2023/07/19 05:59:18;;;;;;;13.77;7.00;;;21.00;99.90;;;;;;5045097;28;20197;-72
2023/07/19 06:01:44;;;;;;;19.53;8.57;;;21.20;99.90;;;;;;5030314;28;20192;-73
2023/07/19 06:04:10;;;;;;;11.60;7.00;;;21.30;99.90;;;;;;5048363;28;20277;-72
2023/07/19 06:06:35;;;;;;;35.20;13.47;;;21.50;99.90;;;;;;5049888;28;20189;-74
2023/07/19 06:09:05;;;;;;;9.10;5.67;;;21.60;99.90;;;;;;5024653;28;20538;-73
2023/07/19 06:11:34;;;;;;;10.60;8.38;;;21.70;99.90;;;;;;5044786;28;20181;-73
2023/07/19 06:14:00;;;;;;;47.93;17.13;;;21.90;99.90;;;;;;5037989;28;20213;-72
2023/07/19 06:16:26;;;;;;;44.70;13.20;;;22.00;99.90;;;;;;5047837;28;20524;-71
2023/07/19 06:18:52;;;;;;;35.43;11.80;;;22.20;99.90;;;;;;5045230;28;20533;-68
2023/07/19 06:21:18;;;;;;;20.43;7.30;;;22.40;99.90;;;;;;5043843;28;20182;-72
2023/07/19 06:23:43;;;;;;;5.00;4.50;;;22.50;99.90;;;;;;5044440;28;20583;-71
2023/07/19 06:26:43;;;;;;;6.83;4.50;;;22.60;99.90;;;;;;5042173;28;20462;-77
2023/07/19 06:29:09;;;;;;;7.67;4.80;;;22.70;99.90;;;;;;5049406;28;20193;-76
2023/07/19 06:31:34;;;;;;;6.37;4.60;;;22.80;99.90;;;;;;5030181;28;20550;-77
2023/07/19 06:34:00;;;;;;;4.70;3.80;;;22.90;99.90;;;;;;5049681;28;20293;-79
2023/07/19 06:36:26;;;;;;;5.00;4.43;;;23.10;99.90;;;;;;5050747;28;20181;-71
2023/07/19 06:38:52;;;;;;;4.47;4.07;;;23.10;99.90;;;;;;5029368;28;20217;-71
2023/07/19 06:41:18;;;;;;;6.03;4.20;;;23.30;99.90;;;;;;5051688;28;20435;-71
2023/07/19 06:43:43;;;;;;;4.50;4.10;;;23.40;99.90;;;;;;5033395;28;20606;-72
2023/07/19 06:46:09;;;;;;;5.03;4.50;;;23.50;99.90;;;;;;5051808;28;20428;-73
2023/07/19 06:48:34;;;;;;;4.63;4.00;;;23.60;99.90;;;;;;5054793;28;21978;-74
2023/07/19 06:51:00;;;;;;;4.40;4.00;;;24.10;99.90;;;;;;5050337;28;20178;-74
2023/07/19 06:53:26;;;;;;;4.93;4.30;;;23.80;99.90;;;;;;5058524;28;20238;-72
2023/07/19 06:55:53;;;;;;;4.30;3.90;;;24.30;99.90;;;;;;5054250;28;20188;-76
2023/07/19 06:58:19;;;;;;;7.07;3.70;;;24.70;98.80;;;;;;5059591;28;20179;-73
2023/07/19 07:00:45;;;;;;;5.00;3.83;;;25.00;98.30;;;;;;5057165;28;20464;-72
2023/07/19 07:03:10;;;;;;;4.80;3.97;;;25.80;97.80;;;;;;5054742;28;20176;-81
2023/07/19 07:05:36;;;;;;;4.03;3.63;;;25.50;97.10;;;;;;5046796;28;20177;-79
2023/07/19 07:08:01;;;;;;;5.77;4.73;;;25.60;96.60;;;;;;5054616;28;20185;-78
2023/07/19 07:10:27;;;;;;;4.30;4.00;;;25.70;96.50;;;;;;5038330;28;20303;-78
2023/07/19 07:12:53;;;;;;;4.13;3.73;;;25.80;95.70;;;;;;5029094;28;20184;-77
2023/07/19 07:15:18;;;;;;;11.33;4.07;;;26.10;94.90;;;;;;5056956;28;20690;-76
2023/07/19 07:17:45;;;;;;;6.97;4.00;;;27.10;93.30;;;;;;5041387;28;20195;-75
2023/07/19 07:20:10;;;;;;;3.87;3.50;;;28.60;90.30;;;;;;5036540;28;20584;-73
2023/07/19 07:22:36;;;;;;;3.70;3.40;;;31.00;83.60;;;;;;5052199;28;20447;-73
2023/07/19 07:25:02;;;;;;;6.30;3.47;;;33.00;70.90;;;;;;5060103;28;20211;-75
2023/07/19 07:27:28;;;;;;;5.27;4.20;;;34.80;62.90;;;;;;5056258;28;20182;-76
2023/07/19 07:29:53;;;;;;;5.93;3.90;;;35.10;58.70;;;;;;5034129;28;20451;-73
2023/07/19 07:32:19;;;;;;;3.37;3.07;;;36.50;55.20;;;;;;5034561;28;20185;-77
2023/07/19 07:34:44;;;;;;;3.83;3.40;;;38.20;50.70;;;;;;5035837;28;20221;-77
2023/07/19 07:37:10;;;;;;;7.40;3.90;;;38.10;48.40;;;;;;5047470;28;20186;-74
2023/07/19 07:39:35;;;;;;;3.67;3.37;;;38.60;45.10;;;;;;5052367;28;20205;-73
2023/07/19 07:42:01;;;;;;;3.90;3.50;;;40.50;42.10;;;;;;5052056;28;20184;-74
2023/07/19 07:44:27;;;;;;;9.97;3.30;;;39.80;40.90;;;;;;5053079;28;20201;-74
2023/07/19 07:46:52;;;;;;;4.63;3.90;;;39.50;40.00;;;;;;5056872;28;20185;-72
2023/07/19 07:49:18;;;;;;;3.50;2.93;;;39.40;39.40;;;;;;5046161;28;20594;-72
2023/07/19 07:51:44;;;;;;;4.40;2.87;;;40.70;39.00;;;;;;5047428;28;20235;-73
2023/07/19 07:54:09;;;;;;;2.40;2.20;;;41.00;34.30;;;;;;5023897;28;20661;-72
2023/07/19 07:56:35;;;;;;;2.40;2.03;;;40.10;34.20;;;;;;5049288;28;20193;-72
2023/07/19 07:59:01;;;;;;;2.23;2.03;;;40.50;33.80;;;;;;5048792;28;20434;-75
2023/07/19 08:01:27;;;;;;;4.03;2.40;;;40.30;33.10;;;;;;5057436;28;20173;-68
2023/07/19 08:03:53;;;;;;;2.47;2.03;;;40.00;33.10;;;;;;5053559;28;20563;-74
2023/07/19 08:06:19;;;;;;;2.13;1.90;;;40.90;32.50;;;;;;5037604;28;20713;-75
2023/07/19 08:08:45;;;;;;;5.37;2.40;;;41.50;31.20;;;;;;5051465;28;20188;-75
2023/07/19 08:11:10;;;;;;;3.00;2.73;;;42.20;30.70;;;;;;5050522;28;20519;-78
2023/07/19 08:13:36;;;;;;;4.20;1.93;;;43.10;29.60;;;;;;5047221;28;20210;-75
2023/07/19 08:16:06;;;;;;;2.27;1.87;;;41.90;28.60;;;;;;5051011;28;20189;-75
2023/07/19 08:18:31;;;;;;;2.37;2.10;;;41.70;29.40;;;;;;5033837;28;20209;-75
2023/07/19 08:20:57;;;;;;;3.20;2.57;;;42.10;29.10;;;;;;5051704;28;20856;-75
2023/07/19 08:23:23;;;;;;;2.93;2.13;;;41.00;29.20;;;;;;5049074;28;20220;-76
2023/07/19 08:25:57;;;;;;;3.67;2.63;;;40.50;29.30;;;;;;5051785;28;20497;-74
2023/07/19 08:28:26;;;;;;;2.50;2.30;;;40.20;29.50;;;;;;5027273;28;20486;-75
2023/07/19 08:30:53;;;;;;;2.23;1.93;;;40.40;29.50;;;;;;5030705;28;20440;-75
2023/07/19 08:33:22;;;;;;;2.37;2.17;;;40.50;29.40;;;;;;5030375;28;20543;-74
2023/07/19 08:35:49;;;;;;;2.27;2.17;;;41.20;29.50;;;;;;5029916;28;20475;-77
2023/07/19 08:38:15;;;;;;;2.80;2.10;;;41.70;28.80;;;;;;5029820;28;20523;-74
2023/07/19 08:40:59;;;;;;;3.87;2.50;;;40.80;28.30;;;;;;5048431;28;20650;-72
2023/07/19 08:43:26;;;;;;;4.20;2.00;;;40.50;28.00;;;;;;5027639;28;20459;-72
2023/07/19 08:45:52;;;;;;;2.13;1.83;;;41.30;28.10;;;;;;5028276;28;20819;-72
2023/07/19 08:48:19;;;;;;;2.27;2.03;;;41.70;27.20;;;;;;5046661;28;22018;-71
2023/07/19 08:50:51;;;;;;;3.60;2.40;;;41.20;27.10;;;;;;5046862;28;20185;-72
2023/07/19 08:53:16;;;;;;;2.17;2.07;;;40.50;27.70;;;;;;5047329;28;20454;-72
2023/07/19 08:55:42;;;;;;;2.63;1.90;;;41.90;27.20;;;;;;5046363;28;20451;-72
2023/07/19 08:58:08;;;;;;;2.43;2.23;;;41.70;26.50;;;;;;5046958;28;20185;-72
2023/07/19 09:00:34;;;;;;;3.40;2.50;;;41.90;25.80;;;;;;5055018;28;22209;-72
2023/07/19 09:03:00;;;;;;;2.60;2.40;;;41.70;26.60;;;;;;5051512;28;20201;-70
2023/07/19 09:05:30;;;;;;;2.40;2.20;;;42.20;25.80;;;;;;5030083;28;20455;-70
2023/07/19 09:08:00;;;;;;;2.63;2.13;;;42.40;25.60;;;;;;5047205;28;20217;-69
2023/07/19 09:10:26;;;;;;;2.20;2.00;;;42.40;24.90;;;;;;5029577;28;20471;-73
2023/07/19 09:12:52;;;;;;;2.30;1.90;;;42.70;25.30;;;;;;5024041;28;20999;-69
2023/07/19 09:15:21;;;;;;;1.70;1.60;;;42.40;25.20;;;;;;5029850;28;20206;-69
2023/07/19 09:17:49;;;;;;;3.00;2.80;;;41.70;24.70;;;;;;5029628;28;20542;-69
2023/07/19 09:20:17;;;;;;;2.97;2.50;;;42.00;25.10;;;;;;5047379;28;20456;-69
2023/07/19 09:22:42;;;;;;;2.10;1.90;;;41.60;24.20;;;;;;5050369;28;20451;-69
2023/07/19 09:25:11;;;;;;;5.10;4.00;;;40.70;25.20;;;;;;5051027;28;20990;-69
2023/07/19 09:27:40;;;;;;;3.50;2.40;;;41.60;25.70;;;;;;5041913;28;20181;-69
2023/07/19 09:30:10;;;;;;;3.67;3.37;;;42.00;25.00;;;;;;5050012;28;20440;-69
2023/07/19 09:32:37;;;;;;;2.53;2.33;;;42.10;25.10;;;;;;5052964;28;20444;-69
2023/07/19 09:35:04;;;;;;;2.10;2.00;;;42.00;24.60;;;;;;5049879;28;20517;-69
2023/07/19 09:37:30;;;;;;;2.23;2.03;;;41.40;24.80;;;;;;5047159;28;20866;-68
2023/07/19 09:39:56;;;;;;;2.33;2.13;;;41.80;24.70;;;;;;5052539;28;20459;-69
2023/07/19 09:42:24;;;;;;;2.50;2.00;;;41.40;24.80;;;;;;5046443;28;20443;-69
2023/07/19 09:44:50;;;;;;;2.10;1.90;;;40.30;24.90;;;;;;5051074;28;20468;-69
2023/07/19 09:47:17;;;;;;;3.10;2.83;;;40.70;25.50;;;;;;5052512;28;20446;-69
2023/07/19 09:49:43;;;;;;;2.23;2.03;;;41.60;25.60;;;;;;5051428;28;20324;-69
2023/07/19 09:52:12;;;;;;;2.67;2.43;;;41.40;25.50;;;;;;5050076;28;20531;-69
2023/07/19 09:54:38;;;;;;;3.80;2.73;;;41.70;25.20;;;;;;5044066;28;20201;-69
2023/07/19 09:57:05;;;;;;;2.77;1.90;;;42.20;25.10;;;;;;5047883;28;21066;-68
2023/07/19 09:59:35;;;;;;;2.73;2.53;;;41.40;24.30;;;;;;5046916;28;20193;-69
2023/07/19 10:02:02;;;;;;;2.50;2.30;;;41.80;25.10;;;;;;5047687;28;20432;-69
2023/07/19 10:04:38;;;;;;;3.10;2.90;;;41.30;25.10;;;;;;5029663;28;21066;-68
2023/07/19 10:07:20;;;;;;;5.87;2.10;;;41.30;25.30;;;;;;5039986;28;20693;-71
2023/07/19 10:09:59;;;;;;;10.43;2.87;;;40.80;25.40;;;;;;5045063;28;20439;-71
2023/07/19 10:12:24;;;;;;;4.80;2.20;;;40.40;26.00;;;;;;5042038;28;20444;-72
2023/07/19 10:14:59;;;;;;;3.47;3.20;;;40.20;26.40;;;;;;5053209;28;20459;-72
2023/07/19 10:17:24;;;;;;;4.23;2.47;;;40.90;26.30;;;;;;5049312;28;20210;-74
2023/07/19 10:20:08;;;;;;;2.70;2.10;;;41.20;25.80;;;;;;5032797;28;21034;-74
2023/07/19 10:22:55;;;;;;;3.70;2.60;;;40.60;26.30;;;;;;5046757;28;20192;-71
2023/07/19 10:25:27;;;;;;;2.83;2.63;;;39.80;27.40;;;;;;5035897;28;20447;-74
2023/07/19 10:28:03;;;;;;;2.43;1.93;;;38.20;28.00;;;;;;5041630;28;20538;-68
2023/07/19 10:30:45;;;;;;;2.70;2.50;;;36.60;29.90;;;;;;5046949;28;20899;-73
2023/07/19 10:33:11;;;;;;;4.63;2.57;;;35.90;30.80;;;;;;5048191;28;20436;-74
2023/07/19 10:35:37;;;;;;;2.23;1.90;;;35.10;32.20;;;;;;5043076;28;20507;-76
2023/07/19 10:38:03;;;;;;;2.60;2.33;;;34.60;33.00;;;;;;5051081;28;20468;-75
2023/07/19 10:40:28;;;;;;;3.37;2.67;;;34.20;33.60;;;;;;5043966;28;20647;-72
2023/07/19 10:42:54;;;;;;;2.80;2.10;;;33.60;34.40;;;;;;5050685;28;20189;-77
2023/07/19 10:45:21;;;;;;;2.67;2.40;;;33.40;35.10;;;;;;5026726;28;20206;-73
2023/07/19 10:47:47;;;;;;;5.13;2.40;;;33.10;35.80;;;;;;5048901;28;20251;-72
2023/07/19 10:50:13;;;;;;;5.20;2.70;;;32.90;36.20;;;;;;5046407;28;20498;-72
2023/07/19 10:52:38;;;;;;;2.87;2.20;;;32.50;36.30;;;;;;5050498;28;20439;-73
2023/07/19 10:55:04;;;;;;;3.50;2.20;;;32.20;38.00;;;;;;5047183;28;20220;-69
2023/07/19 10:57:31;;;;;;;3.17;2.50;;;32.10;37.60;;;;;;5050122;28;20643;-74
2023/07/19 10:59:56;;;;;;;5.57;2.50;;;32.00;37.50;;;;;;5036665;28;20458;-75
2023/07/19 11:02:22;;;;;;;2.67;2.37;;;32.20;37.60;;;;;;5032603;28;20473;-76
2023/07/19 11:04:49;;;;;;;3.30;2.57;;;32.30;37.70;;;;;;5048429;28;20639;-75
2023/07/19 11:07:14;;;;;;;3.37;2.77;;;32.50;37.80;;;;;;5060705;28;20632;-74
2023/07/19 11:09:49;;;;;;;2.77;2.30;;;33.40;36.60;;;;;;5055189;28;20439;-73
2023/07/19 11:12:15;;;;;;;4.10;2.47;;;34.30;35.00;;;;;;5024113;28;20290;-74
2023/07/19 11:14:42;;;;;;;2.50;2.30;;;34.40;35.30;;;;;;5048236;28;20459;-74
2023/07/19 11:17:09;;;;;;;3.70;2.27;;;33.80;34.80;;;;;;5024361;28;20479;-74
2023/07/19 11:19:40;;;;;;;3.47;2.23;;;33.10;35.20;;;;;;5035633;28;20469;-73
2023/07/19 11:22:07;;;;;;;3.83;2.53;;;33.30;36.20;;;;;;5046175;28;20523;-73
2023/07/19 11:24:35;;;;;;;3.57;2.70;;;33.80;35.60;;;;;;5035262;28;20464;-72
2023/07/19 11:27:01;;;;;;;6.77;2.50;;;33.60;35.20;;;;;;5046073;28;20481;-73
2023/07/19 11:29:31;;;;;;;4.67;3.93;;;33.50;35.50;;;;;;5049553;28;20474;-74
2023/07/19 11:32:21;;;;;;;3.80;3.07;;;33.50;35.80;;;;;;5048635;28;20266;-73
2023/07/19 11:34:58;;;;;;;2.80;2.60;;;33.80;35.60;;;;;;5044772;28;21024;-77
2023/07/19 11:37:24;;;;;;;4.63;2.80;;;33.40;36.00;;;;;;5046410;28;20439;-75
2023/07/19 11:39:51;;;;;;;6.83;2.80;;;33.00;36.00;;;;;;5047048;28;20459;-73
2023/07/19 11:42:38;;;;;;;3.50;2.20;;;32.70;36.50;;;;;;5043868;28;20467;-74
2023/07/19 11:45:10;;;;;;;3.87;2.67;;;32.60;36.30;;;;;;5048466;28;20474;-75
2023/07/19 11:47:36;;;;;;;3.80;3.20;;;32.70;36.70;;;;;;5029027;28;20440;-75
2023/07/19 11:50:03;;;;;;;2.93;2.73;;;32.80;37.00;;;;;;5054611;28;20442;-73
2023/07/19 11:52:29;;;;;;;6.20;2.77;;;32.80;37.60;;;;;;5044329;28;22661;-75
2023/07/19 11:54:55;;;;;;;2.73;2.53;;;33.00;36.70;;;;;;5040800;28;20548;-78
2023/07/19 11:57:21;;;;;;;2.77;2.40;;;33.00;36.30;;;;;;5041019;28;20555;-73
2023/07/19 11:59:48;;;;;;;2.90;2.60;;;32.70;36.70;;;;;;5050021;28;20578;-72
2023/07/19 12:02:15;;;;;;;3.10;2.70;;;32.60;37.10;;;;;;5053074;28;20440;-72
2023/07/19 12:04:40;;;;;;;3.83;2.53;;;32.30;37.60;;;;;;5048549;28;20509;-77
2023/07/19 12:07:06;;;;;;;2.67;2.40;;;32.40;38.40;;;;;;5052585;28;20971;-77
2023/07/19 12:09:32;;;;;;;4.10;3.53;;;32.20;38.10;;;;;;5047610;28;20215;-73
2023/07/19 12:11:57;;;;;;;5.43;2.70;;;31.90;38.70;;;;;;5044868;28;20191;-76
2023/07/19 12:14:23;;;;;;;4.27;2.57;;;32.10;38.60;;;;;;5050965;28;20212;-73
2023/07/19 12:16:49;;;;;;;3.10;2.43;;;31.90;38.70;;;;;;5035577;28;20194;-76
2023/07/19 12:19:15;;;;;;;4.87;2.97;;;31.80;39.20;;;;;;5026121;28;20258;-74
2023/07/19 12:21:41;;;;;;;5.90;2.73;;;31.90;39.60;;;;;;5031634;28;20283;-72
2023/07/19 12:24:07;;;;;;;5.60;3.10;;;31.90;39.30;;;;;;5032998;28;20543;-73
2023/07/19 12:26:35;;;;;;;3.37;2.83;;;31.80;39.80;;;;;;5047534;28;20925;-74
2023/07/19 12:29:00;;;;;;;4.83;2.63;;;31.60;39.20;;;;;;5043732;28;20196;-73
2023/07/19 12:31:26;;;;;;;6.60;3.10;;;31.60;39.50;;;;;;5046711;28;20454;-74
2023/07/19 12:33:52;;;;;;;3.73;3.43;;;31.60;39.60;;;;;;5047905;28;20635;-73
2023/07/19 12:36:18;;;;;;;5.07;2.90;;;31.60;39.60;;;;;;5049950;28;20471;-74
2023/07/19 12:38:43;;;;;;;5.13;2.83;;;31.50;39.70;;;;;;5046255;28;20246;-73
2023/07/19 12:41:09;;;;;;;5.03;3.40;;;31.60;39.50;;;;;;5048967;28;20650;-72
2023/07/19 12:43:36;;;;;;;3.87;2.93;;;31.80;40.20;;;;;;5047634;28;20322;-77